sensor_id;sensor_type;location;lat;lon;timestamp;temperature;humidity
37108;DHT22;23019;49.300;6.846;2022-07-23T00:13:42;26.80;99.90
37108;DHT22;23019;49.300;6.846;2022-07-23T00:29:40;26.70;99.90
37108;DHT22;23019;49.300;6.846;2022-07-23T01:48:02;26.30;99.90
37108;DHT22;23019;49.300;6.846;2022-07-23T02:33:18;26.00;99.90
37108;DHT22;23019;49.300;6.846;2022-07-23T02:47:53;26.00;99.90
37108;DHT22;23019;49.300;6.846;2022-07-23T03:16:02;25.80;99.90
37108;DHT22;23019;49.300;6.846;2022-07-23T03:34:20;25.70;99.90
37108;DHT22;23019;49.300;6.846;2022-07-23T03:47:56;25.60;99.90
37108;DHT22;23019;49.300;6.846;2022-07-23T04:55:14;25.30;99.90
37108;DHT22;23019;49.300;6.846;2022-07-23T05:16:08;35.60;99.90
37108;DHT22;23019;49.300;6.846;2022-07-23T05:19:45;35.70;99.90
37108;DHT22;23019;49.300;6.846;2022-07-23T05:23:09;36.10;99.90
37108;DHT22;23019;49.300;6.846;2022-07-23T05:26:37;37.00;99.90
37108;DHT22;23019;49.300;6.846;2022-07-23T05:32:59;38.10;99.90
37108;DHT22;23019;49.300;6.846;2022-07-23T06:04:13;37.80;99.90
37108;DHT22;23019;49.300;6.846;2022-07-23T06:24:32;37.90;99.90
37108;DHT22;23019;49.300;6.846;2022-07-23T06:27:49;37.90;99.90
37108;DHT22;23019;49.300;6.846;2022-07-23T06:47:59;37.80;99.90
37108;DHT22;23019;49.300;6.846;2022-07-23T06:53:44;38.00;99.90
37108;DHT22;23019;49.300;6.846;2022-07-23T07:02:31;37.90;99.90
37108;DHT22;23019;49.300;6.846;2022-07-23T07:08:45;37.90;99.90
37108;DHT22;23019;49.300;6.846;2022-07-23T07:14:46;37.70;99.90
37108;DHT22;23019;49.300;6.846;2022-07-23T07:18:07;37.70;99.90
37108;DHT22;23019;49.300;6.846;2022-07-23T07:27:21;37.50;99.90
37108;DHT22;23019;49.300;6.846;2022-07-23T07:31:00;37.40;99.90
37108;DHT22;23019;49.300;6.846;2022-07-23T07:40:14;37.30;99.90
37108;DHT22;23019;49.300;6.846;2022-07-23T07:52:57;37.10;99.90
37108;DHT22;23019;49.300;6.846;2022-07-23T07:56:05;37.10;99.90
37108;DHT22;23019;49.300;6.846;2022-07-23T07:58:40;37.00;99.90
37108;DHT22;23019;49.300;6.846;2022-07-23T08:04:00;36.90;99.90
37108;DHT22;23019;49.300;6.846;2022-07-23T08:07:32;36.90;99.90
37108;DHT22;23019;49.300;6.846;2022-07-23T08:10:19;36.80;99.90
37108;DHT22;23019;49.300;6.846;2022-07-23T08:16:32;36.70;99.90
37108;DHT22;23019;49.300;6.846;2022-07-23T08:19:40;36.70;99.90
37108;DHT22;23019;49.300;6.846;2022-07-23T08:22:18;36.70;99.90
37108;DHT22;23019;49.300;6.846;2022-07-23T08:25:11;36.70;99.90
37108;DHT22;23019;49.300;6.846;2022-07-23T08:27:53;36.60;99.90
37108;DHT22;23019;49.300;6.846;2022-07-23T08:29:56;36.50;99.90
37108;DHT22;23019;49.300;6.846;2022-07-23T08:31:57;36.60;99.90
37108;DHT22;23019;49.300;6.846;2022-07-23T08:33:58;36.50;99.90
37108;DHT22;23019;49.300;6.846;2022-07-23T08:35:59;36.40;99.90
37108;DHT22;23019;49.300;6.846;2022-07-23T08:38:02;36.40;99.90
37108;DHT22;23019;49.300;6.846;2022-07-23T08:40:03;36.40;99.90
37108;DHT22;23019;49.300;6.846;2022-07-23T08:42:04;36.30;99.90
37108;DHT22;23019;49.300;6.846;2022-07-23T08:44:13;36.30;99.90
37108;DHT22;23019;49.300;6.846;2022-07-23T08:47:05;36.30;99.90
37108;DHT22;23019;49.300;6.846;2022-07-23T08:49:37;36.20;99.90
37108;DHT22;23019;49.300;6.846;2022-07-23T08:52:20;36.20;99.90
37108;DHT22;23019;49.300;6.846;2022-07-23T08:54:56;36.10;99.90
37108;DHT22;23019;49.300;6.846;2022-07-23T08:57:25;36.10;99.90
37108;DHT22;23019;49.300;6.846;2022-07-23T08:59:37;36.00;99.90
37108;DHT22;23019;49.300;6.846;2022-07-23T09:02:04;36.00;99.90
37108;DHT22;23019;49.300;6.846;2022-07-23T09:04:25;36.00;99.90
37108;DHT22;23019;49.300;6.846;2022-07-23T09:06:28;36.00;99.90
37108;DHT22;23019;49.300;6.846;2022-07-23T09:08:40;35.90;99.90
37108;DHT22;23019;49.300;6.846;2022-07-23T09:10:57;35.80;99.90
37108;DHT22;23019;49.300;6.846;2022-07-23T09:13:00;35.80;99.90
37108;DHT22;23019;49.300;6.846;2022-07-23T09:15:08;35.60;99.90
37108;DHT22;23019;49.300;6.846;2022-07-23T09:17:17;35.70;99.90
37108;DHT22;23019;49.300;6.846;2022-07-23T09:19:27;35.70;99.90
37108;DHT22;23019;49.300;6.846;2022-07-23T09:21:38;35.70;99.90
37108;DHT22;23019;49.300;6.846;2022-07-23T09:23:45;35.60;99.90
37108;DHT22;23019;49.300;6.846;2022-07-23T09:25:48;35.60;99.90
37108;DHT22;23019;49.300;6.846;2022-07-23T09:27:55;35.60;99.90
37108;DHT22;23019;49.300;6.846;2022-07-23T09:30:07;35.50;99.90
37108;DHT22;23019;49.300;6.846;2022-07-23T09:32:13;35.50;99.90
37108;DHT22;23019;49.300;6.846;2022-07-23T09:36:35;35.30;99.90
37108;DHT22;23019;49.300;6.846;2022-07-23T09:39:03;35.40;99.90
37108;DHT22;23019;49.300;6.846;2022-07-23T09:43:29;35.30;99.90
37108;DHT22;23019;49.300;6.846;2022-07-23T09:45:30;35.30;99.90
37108;DHT22;23019;49.300;6.846;2022-07-23T09:47:33;35.30;99.90
37108;DHT22;23019;49.300;6.846;2022-07-23T09:49:34;35.20;99.90
37108;DHT22;23019;49.300;6.846;2022-07-23T09:51:53;35.10;99.90
37108;DHT22;23019;49.300;6.846;2022-07-23T09:54:00;35.10;99.90
37108;DHT22;23019;49.300;6.846;2022-07-23T09:56:01;35.00;99.90
37108;DHT22;23019;49.300;6.846;2022-07-23T09:58:05;35.10;99.90
37108;DHT22;23019;49.300;6.846;2022-07-23T10:00:10;35.10;99.90
37108;DHT22;23019;49.300;6.846;2022-07-23T10:02:12;35.00;99.90
37108;DHT22;23019;49.300;6.846;2022-07-23T10:04:34;35.00;99.90
37108;DHT22;23019;49.300;6.846;2022-07-23T10:06:58;34.90;99.90
37108;DHT22;23019;49.300;6.846;2022-07-23T10:11:58;34.90;99.90
37108;DHT22;23019;49.300;6.846;2022-07-23T10:14:25;34.80;99.90
37108;DHT22;23019;49.300;6.846;2022-07-23T10:16:30;34.80;99.90
37108;DHT22;23019;49.300;6.846;2022-07-23T10:18:31;34.80;99.90
37108;DHT22;23019;49.300;6.846;2022-07-23T10:20:32;34.70;99.90
37108;DHT22;23019;49.300;6.846;2022-07-23T10:22:36;34.70;99.90
37108;DHT22;23019;49.300;6.846;2022-07-23T10:31:52;34.50;99.90
37108;DHT22;23019;49.300;6.846;2022-07-23T10:34:11;34.50;99.90
37108;DHT22;23019;49.300;6.846;2022-07-23T10:36:37;34.50;99.90
37108;DHT22;23019;49.300;6.846;2022-07-23T10:38:58;34.50;99.90
37108;DHT22;23019;49.300;6.846;2022-07-23T10:41:05;34.50;99.90
37108;DHT22;23019;49.300;6.846;2022-07-23T10:43:15;34.40;99.90
37108;DHT22;23019;49.300;6.846;2022-07-23T10:45:38;34.40;99.90
37108;DHT22;23019;49.300;6.846;2022-07-23T10:47:38;34.30;99.90
37108;DHT22;23019;49.300;6.846;2022-07-23T10:49:43;34.30;99.90
37108;DHT22;23019;49.300;6.846;2022-07-23T10:54:22;34.20;99.90
37108;DHT22;23019;49.300;6.846;2022-07-23T10:59:03;34.10;99.90
37108;DHT22;23019;49.300;6.846;2022-07-23T11:01:31;34.10;99.90
37108;DHT22;23019;49.300;6.846;2022-07-23T11:03:34;34.00;99.90
37108;DHT22;23019;49.300;6.846;2022-07-23T11:05:44;33.90;99.90
37108;DHT22;23019;49.300;6.846;2022-07-23T11:12:37;33.90;99.90
37108;DHT22;23019;49.300;6.846;2022-07-23T11:15:13;33.90;99.90
37108;DHT22;23019;49.300;6.846;2022-07-23T11:17:21;33.80;99.90
37108;DHT22;23019;49.300;6.846;2022-07-23T11:19:21;33.70;99.90
37108;DHT22;23019;49.300;6.846;2022-07-23T11:24:08;33.70;99.90
37108;DHT22;23019;49.300;6.846;2022-07-23T11:26:09;33.70;99.90
37108;DHT22;23019;49.300;6.846;2022-07-23T11:28:13;33.70;99.90
37108;DHT22;23019;49.300;6.846;2022-07-23T11:32:32;33.60;99.90
37108;DHT22;23019;49.300;6.846;2022-07-23T11:34:42;33.50;99.90
37108;DHT22;23019;49.300;6.846;2022-07-23T11:36:49;33.40;99.90
37108;DHT22;23019;49.300;6.846;2022-07-23T11:38:51;33.50;99.90
37108;DHT22;23019;49.300;6.846;2022-07-23T11:40:54;33.40;99.90
37108;DHT22;23019;49.300;6.846;2022-07-23T11:42:58;33.40;99.90
37108;DHT22;23019;49.300;6.846;2022-07-23T11:44:59;33.40;99.90
37108;DHT22;23019;49.300;6.846;2022-07-23T11:47:03;33.40;99.90
37108;DHT22;23019;49.300;6.846;2022-07-23T11:49:04;33.40;99.90
37108;DHT22;23019;49.300;6.846;2022-07-23T11:51:05;33.30;99.90
37108;DHT22;23019;49.300;6.846;2022-07-23T11:53:05;33.20;99.90
37108;DHT22;23019;49.300;6.846;2022-07-23T11:55:09;33.20;99.90
37108;DHT22;23019;49.300;6.846;2022-07-23T11:57:10;33.30;99.90
37108;DHT22;23019;49.300;6.846;2022-07-23T11:59:11;33.20;99.90
37108;DHT22;23019;49.300;6.846;2022-07-23T12:01:13;33.10;99.90
37108;DHT22;23019;49.300;6.846;2022-07-23T12:03:14;33.10;99.90
37108;DHT22;23019;49.300;6.846;2022-07-23T12:05:19;33.10;99.90
37108;DHT22;23019;49.300;6.846;2022-07-23T12:07:38;33.00;99.90
37108;DHT22;23019;49.300;6.846;2022-07-23T12:09:44;33.00;99.90
37108;DHT22;23019;49.300;6.846;2022-07-23T12:12:02;33.00;99.90
37108;DHT22;23019;49.300;6.846;2022-07-23T12:14:02;33.00;99.90
37108;DHT22;23019;49.300;6.846;2022-07-23T12:16:03;32.90;99.90
37108;DHT22;23019;49.300;6.846;2022-07-23T12:18:11;32.90;99.90
37108;DHT22;23019;49.300;6.846;2022-07-23T12:20:15;32.80;99.90
37108;DHT22;23019;49.300;6.846;2022-07-23T12:22:16;32.90;99.90
37108;DHT22;23019;49.300;6.846;2022-07-23T12:24:17;32.80;99.90
37108;DHT22;23019;49.300;6.846;2022-07-23T12:26:18;32.80;99.90
37108;DHT22;23019;49.300;6.846;2022-07-23T12:28:28;32.80;99.90
37108;DHT22;23019;49.300;6.846;2022-07-23T12:30:48;32.80;99.90
37108;DHT22;23019;49.300;6.846;2022-07-23T12:32:50;32.80;99.90
37108;DHT22;23019;49.300;6.846;2022-07-23T12:35:06;32.70;99.90
37108;DHT22;23019;49.300;6.846;2022-07-23T12:37:29;32.60;99.90
37108;DHT22;23019;49.300;6.846;2022-07-23T12:39:31;32.60;99.90
37108;DHT22;23019;49.300;6.846;2022-07-23T12:41:51;32.60;99.90
37108;DHT22;23019;49.300;6.846;2022-07-23T12:43:52;32.60;99.90
37108;DHT22;23019;49.300;6.846;2022-07-23T12:46:14;32.50;99.90
37108;DHT22;23019;49.300;6.846;2022-07-23T12:48:18;32.50;99.90
37108;DHT22;23019;49.300;6.846;2022-07-23T12:50:40;32.40;99.90
37108;DHT22;23019;49.300;6.846;2022-07-23T12:52:43;32.40;99.90
37108;DHT22;23019;49.300;6.846;2022-07-23T12:54:44;32.30;99.90
37108;DHT22;23019;49.300;6.846;2022-07-23T12:56:45;32.30;99.90
37108;DHT22;23019;49.300;6.846;2022-07-23T12:58:50;32.30;99.90
37108;DHT22;23019;49.300;6.846;2022-07-23T13:00:51;32.30;99.90
37108;DHT22;23019;49.300;6.846;2022-07-23T13:02:52;32.30;99.90
37108;DHT22;23019;49.300;6.846;2022-07-23T13:04:53;32.30;99.90
37108;DHT22;23019;49.300;6.846;2022-07-23T13:06:59;32.20;99.90
37108;DHT22;23019;49.300;6.846;2022-07-23T13:09:05;32.30;99.90
37108;DHT22;23019;49.300;6.846;2022-07-23T13:11:06;32.10;99.90
37108;DHT22;23019;49.300;6.846;2022-07-23T13:13:11;32.20;99.90
37108;DHT22;23019;49.300;6.846;2022-07-23T13:15:12;32.10;99.90
37108;DHT22;23019;49.300;6.846;2022-07-23T13:17:12;32.10;99.90
37108;DHT22;23019;49.300;6.846;2022-07-23T13:19:15;32.10;99.90
37108;DHT22;23019;49.300;6.846;2022-07-23T13:21:16;32.10;99.90
37108;DHT22;23019;49.300;6.846;2022-07-23T13:23:17;32.00;99.90
37108;DHT22;23019;49.300;6.846;2022-07-23T13:25:18;32.00;99.90
37108;DHT22;23019;49.300;6.846;2022-07-23T13:27:19;32.00;99.90
37108;DHT22;23019;49.300;6.846;2022-07-23T13:29:23;31.90;99.90
37108;DHT22;23019;49.300;6.846;2022-07-23T13:31:23;31.90;99.90
37108;DHT22;23019;49.300;6.846;2022-07-23T13:33:24;31.90;99.90
37108;DHT22;23019;49.300;6.846;2022-07-23T13:35:25;31.90;99.90
37108;DHT22;23019;49.300;6.846;2022-07-23T13:37:29;31.90;99.90
37108;DHT22;23019;49.300;6.846;2022-07-23T13:39:30;31.80;99.90
37108;DHT22;23019;49.300;6.846;2022-07-23T13:41:30;31.80;99.90
37108;DHT22;23019;49.300;6.846;2022-07-23T13:43:32;31.80;99.90
37108;DHT22;23019;49.300;6.846;2022-07-23T13:45:33;31.80;99.90
37108;DHT22;23019;49.300;6.846;2022-07-23T13:47:34;31.70;99.90
37108;DHT22;23019;49.300;6.846;2022-07-23T13:49:38;31.70;99.90
37108;DHT22;23019;49.300;6.846;2022-07-23T13:51:39;31.60;99.90
37108;DHT22;23019;49.300;6.846;2022-07-23T13:53:40;31.60;99.90
37108;DHT22;23019;49.300;6.846;2022-07-23T13:55:41;31.60;99.90
37108;DHT22;23019;49.300;6.846;2022-07-23T13:57:44;31.50;99.90
37108;DHT22;23019;49.300;6.846;2022-07-23T13:59:45;31.50;99.90
37108;DHT22;23019;49.300;6.846;2022-07-23T14:01:46;31.50;99.90
37108;DHT22;23019;49.300;6.846;2022-07-23T14:03:50;31.50;99.90
37108;DHT22;23019;49.300;6.846;2022-07-23T14:05:52;31.50;99.90
37108;DHT22;23019;49.300;6.846;2022-07-23T14:07:53;31.50;99.90
37108;DHT22;23019;49.300;6.846;2022-07-23T14:09:54;31.40;99.90
37108;DHT22;23019;49.300;6.846;2022-07-23T14:11:55;31.40;99.90
37108;DHT22;23019;49.300;6.846;2022-07-23T14:13:56;31.40;99.90
37108;DHT22;23019;49.300;6.846;2022-07-23T14:15:57;31.40;99.90
37108;DHT22;23019;49.300;6.846;2022-07-23T14:17:58;31.40;99.90
37108;DHT22;23019;49.300;6.846;2022-07-23T14:19:59;31.30;99.90
37108;DHT22;23019;49.300;6.846;2022-07-23T14:22:03;31.30;99.90
37108;DHT22;23019;49.300;6.846;2022-07-23T14:24:04;31.20;99.90
37108;DHT22;23019;49.300;6.846;2022-07-23T14:26:05;31.20;99.90
37108;DHT22;23019;49.300;6.846;2022-07-23T14:28:06;31.30;99.90
37108;DHT22;23019;49.300;6.846;2022-07-23T14:30:09;31.20;99.90
37108;DHT22;23019;49.300;6.846;2022-07-23T14:32:10;31.20;99.90
37108;DHT22;23019;49.300;6.846;2022-07-23T14:34:11;31.20;99.90
37108;DHT22;23019;49.300;6.846;2022-07-23T14:36:14;31.20;99.90
37108;DHT22;23019;49.300;6.846;2022-07-23T14:38:15;31.10;99.90
37108;DHT22;23019;49.300;6.846;2022-07-23T14:40:19;31.10;99.90
37108;DHT22;23019;49.300;6.846;2022-07-23T14:42:20;31.00;99.90
37108;DHT22;23019;49.300;6.846;2022-07-23T14:44:25;31.00;99.90
37108;DHT22;23019;49.300;6.846;2022-07-23T14:46:27;31.00;99.90
37108;DHT22;23019;49.300;6.846;2022-07-23T14:48:28;30.90;99.90
37108;DHT22;23019;49.300;6.846;2022-07-23T14:50:34;30.90;99.90
37108;DHT22;23019;49.300;6.846;2022-07-23T14:52:35;30.80;99.90
37108;DHT22;23019;49.300;6.846;2022-07-23T14:54:52;30.90;99.90
37108;DHT22;23019;49.300;6.846;2022-07-23T14:56:57;31.00;99.90
37108;DHT22;23019;49.300;6.846;2022-07-23T14:59:05;30.90;99.90
37108;DHT22;23019;49.300;6.846;2022-07-23T15:01:13;30.90;99.90
37108;DHT22;23019;49.300;6.846;2022-07-23T15:03:19;30.80;99.90
37108;DHT22;23019;49.300;6.846;2022-07-23T15:05:21;30.80;99.90
37108;DHT22;23019;49.300;6.846;2022-07-23T15:07:22;30.80;99.90
37108;DHT22;23019;49.300;6.846;2022-07-23T15:09:23;30.80;99.90
37108;DHT22;23019;49.300;6.846;2022-07-23T15:11:27;30.70;99.90
37108;DHT22;23019;49.300;6.846;2022-07-23T15:13:37;30.70;99.90
37108;DHT22;23019;49.300;6.846;2022-07-23T15:15:39;30.70;99.90
37108;DHT22;23019;49.300;6.846;2022-07-23T15:17:40;30.60;99.90
37108;DHT22;23019;49.300;6.846;2022-07-23T15:19:44;30.70;99.90
37108;DHT22;23019;49.300;6.846;2022-07-23T15:21:48;30.60;99.90
37108;DHT22;23019;49.300;6.846;2022-07-23T15:24:02;30.50;99.90
37108;DHT22;23019;49.300;6.846;2022-07-23T15:26:07;30.60;99.90
37108;DHT22;23019;49.300;6.846;2022-07-23T15:28:08;30.50;99.90
37108;DHT22;23019;49.300;6.846;2022-07-23T15:30:12;30.50;99.90
37108;DHT22;23019;49.300;6.846;2022-07-23T15:32:14;30.40;99.90
37108;DHT22;23019;49.300;6.846;2022-07-23T15:34:15;30.40;99.90
37108;DHT22;23019;49.300;6.846;2022-07-23T15:36:20;30.50;99.90
37108;DHT22;23019;49.300;6.846;2022-07-23T15:38:21;30.40;99.90
37108;DHT22;23019;49.300;6.846;2022-07-23T15:40:22;30.40;99.90
37108;DHT22;23019;49.300;6.846;2022-07-23T15:42:23;30.40;99.90
37108;DHT22;23019;49.300;6.846;2022-07-23T15:44:30;30.30;99.90
37108;DHT22;23019;49.300;6.846;2022-07-23T15:46:31;30.20;99.90
37108;DHT22;23019;49.300;6.846;2022-07-23T15:48:35;30.30;99.90
37108;DHT22;23019;49.300;6.846;2022-07-23T15:50:36;30.30;99.90
37108;DHT22;23019;49.300;6.846;2022-07-23T15:52:42;30.30;99.90
37108;DHT22;23019;49.300;6.846;2022-07-23T15:54:43;30.20;99.90
37108;DHT22;23019;49.300;6.846;2022-07-23T15:56:47;30.20;99.90
37108;DHT22;23019;49.300;6.846;2022-07-23T15:58:47;30.20;99.90
37108;DHT22;23019;49.300;6.846;2022-07-23T16:00:48;30.10;99.90
37108;DHT22;23019;49.300;6.846;2022-07-23T16:02:49;30.10;99.90
37108;DHT22;23019;49.300;6.846;2022-07-23T16:04:50;30.10;99.90
37108;DHT22;23019;49.300;6.846;2022-07-23T16:06:51;30.00;99.90
37108;DHT22;23019;49.300;6.846;2022-07-23T16:08:52;30.00;99.90
37108;DHT22;23019;49.300;6.846;2022-07-23T16:10:53;30.10;99.90
37108;DHT22;23019;49.300;6.846;2022-07-23T16:12:57;30.10;99.90
37108;DHT22;23019;49.300;6.846;2022-07-23T16:14:58;30.00;99.90
37108;DHT22;23019;49.300;6.846;2022-07-23T16:16:58;30.00;99.90
37108;DHT22;23019;49.300;6.846;2022-07-23T16:18:59;30.00;99.90
37108;DHT22;23019;49.300;6.846;2022-07-23T16:21:00;30.00;99.90
37108;DHT22;23019;49.300;6.846;2022-07-23T16:23:01;29.90;99.90
37108;DHT22;23019;49.300;6.846;2022-07-23T16:25:06;29.90;99.90
37108;DHT22;23019;49.300;6.846;2022-07-23T16:27:07;29.90;99.90
37108;DHT22;23019;49.300;6.846;2022-07-23T16:29:08;29.90;99.90
37108;DHT22;23019;49.300;6.846;2022-07-23T16:31:09;29.80;99.90
37108;DHT22;23019;49.300;6.846;2022-07-23T16:33:09;29.80;99.90
37108;DHT22;23019;49.300;6.846;2022-07-23T16:35:11;29.80;99.90
37108;DHT22;23019;49.300;6.846;2022-07-23T16:37:13;29.80;99.90
37108;DHT22;23019;49.300;6.846;2022-07-23T16:39:13;29.80;99.90
37108;DHT22;23019;49.300;6.846;2022-07-23T16:41:14;29.80;99.90
37108;DHT22;23019;49.300;6.846;2022-07-23T16:43:15;29.70;99.90
37108;DHT22;23019;49.300;6.846;2022-07-23T16:45:15;29.70;99.90
37108;DHT22;23019;49.300;6.846;2022-07-23T16:47:16;29.70;99.90
37108;DHT22;23019;49.300;6.846;2022-07-23T16:49:20;29.70;99.90
37108;DHT22;23019;49.300;6.846;2022-07-23T16:51:20;29.60;99.90
37108;DHT22;23019;49.300;6.846;2022-07-23T16:53:21;29.60;99.90
37108;DHT22;23019;49.300;6.846;2022-07-23T16:55:22;29.60;99.90
37108;DHT22;23019;49.300;6.846;2022-07-23T16:57:23;29.60;99.90
37108;DHT22;23019;49.300;6.846;2022-07-23T16:59:24;29.50;99.90
37108;DHT22;23019;49.300;6.846;2022-07-23T17:01:27;29.50;99.90
37108;DHT22;23019;49.300;6.846;2022-07-23T17:03:28;29.50;99.90
37108;DHT22;23019;49.300;6.846;2022-07-23T17:05:29;29.50;99.90
37108;DHT22;23019;49.300;6.846;2022-07-23T17:07:30;29.50;99.90
37108;DHT22;23019;49.300;6.846;2022-07-23T17:09:32;29.50;99.90
37108;DHT22;23019;49.300;6.846;2022-07-23T17:11:35;29.50;99.90
37108;DHT22;23019;49.300;6.846;2022-07-23T17:13:35;29.50;99.90
37108;DHT22;23019;49.300;6.846;2022-07-23T17:15:36;29.40;99.90
37108;DHT22;23019;49.300;6.846;2022-07-23T17:17:37;29.40;99.90
37108;DHT22;23019;49.300;6.846;2022-07-23T17:19:41;29.40;99.90
37108;DHT22;23019;49.300;6.846;2022-07-23T17:21:42;29.40;99.90
37108;DHT22;23019;49.300;6.846;2022-07-23T17:23:43;29.40;99.90
37108;DHT22;23019;49.300;6.846;2022-07-23T17:25:43;29.40;99.90
37108;DHT22;23019;49.300;6.846;2022-07-23T17:27:44;29.30;99.90
37108;DHT22;23019;49.300;6.846;2022-07-23T17:29:45;29.30;99.90
37108;DHT22;23019;49.300;6.846;2022-07-23T17:31:46;29.30;99.90
37108;DHT22;23019;49.300;6.846;2022-07-23T17:33:47;29.40;99.90
37108;DHT22;23019;49.300;6.846;2022-07-23T17:35:48;29.20;99.90
37108;DHT22;23019;49.300;6.846;2022-07-23T17:37:52;29.30;99.90
37108;DHT22;23019;49.300;6.846;2022-07-23T17:39:53;29.20;99.90
37108;DHT22;23019;49.300;6.846;2022-07-23T17:41:54;29.20;99.90
37108;DHT22;23019;49.300;6.846;2022-07-23T17:43:55;29.20;99.90
37108;DHT22;23019;49.300;6.846;2022-07-23T17:45:55;29.10;99.90
37108;DHT22;23019;49.300;6.846;2022-07-23T17:47:57;29.10;99.90
37108;DHT22;23019;49.300;6.846;2022-07-23T17:49:58;29.10;99.90
37108;DHT22;23019;49.300;6.846;2022-07-23T17:52:01;29.10;99.90
37108;DHT22;23019;49.300;6.846;2022-07-23T17:54:03;29.10;99.90
37108;DHT22;23019;49.300;6.846;2022-07-23T17:56:04;29.00;99.90
37108;DHT22;23019;49.300;6.846;2022-07-23T17:58:05;29.00;99.90
37108;DHT22;23019;49.300;6.846;2022-07-23T18:00:11;29.00;99.90
37108;DHT22;23019;49.300;6.846;2022-07-23T18:02:12;29.00;99.90
37108;DHT22;23019;49.300;6.846;2022-07-23T18:04:13;29.00;99.90
37108;DHT22;23019;49.300;6.846;2022-07-23T18:06:14;29.00;99.90
37108;DHT22;23019;49.300;6.846;2022-07-23T18:08:14;28.90;99.90
37108;DHT22;23019;49.300;6.846;2022-07-23T18:10:15;28.90;99.90
37108;DHT22;23019;49.300;6.846;2022-07-23T18:12:16;28.90;99.90
37108;DHT22;23019;49.300;6.846;2022-07-23T18:14:17;28.90;99.90
37108;DHT22;23019;49.300;6.846;2022-07-23T18:16:17;28.90;99.90
37108;DHT22;23019;49.300;6.846;2022-07-23T18:18:18;28.90;99.90
37108;DHT22;23019;49.300;6.846;2022-07-23T18:20:19;28.80;99.90
37108;DHT22;23019;49.300;6.846;2022-07-23T18:22:19;28.80;99.90
37108;DHT22;23019;49.300;6.846;2022-07-23T18:24:20;28.80;99.90
37108;DHT22;23019;49.300;6.846;2022-07-23T18:26:23;28.80;99.90
37108;DHT22;23019;49.300;6.846;2022-07-23T18:28:24;28.80;99.90
37108;DHT22;23019;49.300;6.846;2022-07-23T18:30:24;28.80;99.90
37108;DHT22;23019;49.300;6.846;2022-07-23T18:32:26;28.80;99.90
37108;DHT22;23019;49.300;6.846;2022-07-23T18:34:26;28.70;99.90
37108;DHT22;23019;49.300;6.846;2022-07-23T18:36:27;28.70;99.90
37108;DHT22;23019;49.300;6.846;2022-07-23T18:38:28;28.70;99.90
37108;DHT22;23019;49.300;6.846;2022-07-23T18:40:28;28.70;99.90
37108;DHT22;23019;49.300;6.846;2022-07-23T18:42:29;28.70;99.90
37108;DHT22;23019;49.300;6.846;2022-07-23T18:44:30;28.70;99.90
37108;DHT22;23019;49.300;6.846;2022-07-23T18:46:31;28.70;99.90
37108;DHT22;23019;49.300;6.846;2022-07-23T18:48:32;28.70;99.90
37108;DHT22;23019;49.300;6.846;2022-07-23T18:50:33;28.70;99.90
37108;DHT22;23019;49.300;6.846;2022-07-23T18:52:34;28.60;99.90
37108;DHT22;23019;49.300;6.846;2022-07-23T18:54:35;28.60;99.90
37108;DHT22;23019;49.300;6.846;2022-07-23T18:56:36;28.50;99.90
37108;DHT22;23019;49.300;6.846;2022-07-23T18:58:37;28.40;99.90
37108;DHT22;23019;49.300;6.846;2022-07-23T19:00:38;28.50;99.90
37108;DHT22;23019;49.300;6.846;2022-07-23T19:02:39;28.50;99.90
37108;DHT22;23019;49.300;6.846;2022-07-23T19:04:40;28.40;99.90
37108;DHT22;23019;49.300;6.846;2022-07-23T19:06:41;28.40;99.90
37108;DHT22;23019;49.300;6.846;2022-07-23T19:08:44;28.40;99.90
37108;DHT22;23019;49.300;6.846;2022-07-23T19:10:45;28.40;99.90
37108;DHT22;23019;49.300;6.846;2022-07-23T19:12:48;28.40;99.90
37108;DHT22;23019;49.300;6.846;2022-07-23T19:14:48;28.40;99.90
37108;DHT22;23019;49.300;6.846;2022-07-23T19:16:49;28.40;99.90
37108;DHT22;23019;49.300;6.846;2022-07-23T19:18:50;28.40;99.90
37108;DHT22;23019;49.300;6.846;2022-07-23T19:20:50;28.30;99.90
37108;DHT22;23019;49.300;6.846;2022-07-23T19:22:51;28.30;99.90
37108;DHT22;23019;49.300;6.846;2022-07-23T19:24:53;28.30;99.90
37108;DHT22;23019;49.300;6.846;2022-07-23T19:26:54;28.30;99.90
37108;DHT22;23019;49.300;6.846;2022-07-23T19:28:54;28.30;99.90
37108;DHT22;23019;49.300;6.846;2022-07-23T19:30:55;28.30;99.90
37108;DHT22;23019;49.300;6.846;2022-07-23T19:32:56;28.30;99.90
37108;DHT22;23019;49.300;6.846;2022-07-23T19:34:57;28.20;99.90
37108;DHT22;23019;49.300;6.846;2022-07-23T19:36:58;28.20;99.90
37108;DHT22;23019;49.300;6.846;2022-07-23T19:38:59;28.20;99.90
37108;DHT22;23019;49.300;6.846;2022-07-23T19:40:59;28.20;99.90
37108;DHT22;23019;49.300;6.846;2022-07-23T19:43:00;28.20;99.90
37108;DHT22;23019;49.300;6.846;2022-07-23T19:45:05;28.20;99.90
37108;DHT22;23019;49.300;6.846;2022-07-23T19:47:06;28.20;99.90
37108;DHT22;23019;49.300;6.846;2022-07-23T19:49:06;28.10;99.90
37108;DHT22;23019;49.300;6.846;2022-07-23T19:51:07;28.10;99.90
37108;DHT22;23019;49.300;6.846;2022-07-23T19:53:08;28.10;99.90
37108;DHT22;23019;49.300;6.846;2022-07-23T19:55:09;28.10;99.90
37108;DHT22;23019;49.300;6.846;2022-07-23T19:57:10;28.00;99.90
37108;DHT22;23019;49.300;6.846;2022-07-23T19:59:11;28.00;99.90
37108;DHT22;23019;49.300;6.846;2022-07-23T20:01:12;28.00;99.90
37108;DHT22;23019;49.300;6.846;2022-07-23T20:03:12;28.00;99.90
37108;DHT22;23019;49.300;6.846;2022-07-23T20:05:13;28.00;99.90
37108;DHT22;23019;49.300;6.846;2022-07-23T20:07:14;28.00;99.90
37108;DHT22;23019;49.300;6.846;2022-07-23T20:09:15;28.00;99.90
37108;DHT22;23019;49.300;6.846;2022-07-23T20:11:16;28.00;99.90
37108;DHT22;23019;49.300;6.846;2022-07-23T20:13:16;27.90;99.90
37108;DHT22;23019;49.300;6.846;2022-07-23T20:15:17;27.90;99.90
37108;DHT22;23019;49.300;6.846;2022-07-23T20:17:18;27.90;99.90
37108;DHT22;23019;49.300;6.846;2022-07-23T20:19:19;27.90;99.90
37108;DHT22;23019;49.300;6.846;2022-07-23T20:21:19;27.90;99.90
37108;DHT22;23019;49.300;6.846;2022-07-23T20:23:20;27.80;99.90
37108;DHT22;23019;49.300;6.846;2022-07-23T20:25:21;27.80;99.90
37108;DHT22;23019;49.300;6.846;2022-07-23T20:27:21;27.80;99.90
37108;DHT22;23019;49.300;6.846;2022-07-23T20:29:22;27.80;99.90
37108;DHT22;23019;49.300;6.846;2022-07-23T20:31:23;27.70;99.90
37108;DHT22;23019;49.300;6.846;2022-07-23T20:33:24;27.70;99.90
37108;DHT22;23019;49.300;6.846;2022-07-23T20:35:25;27.70;99.90
37108;DHT22;23019;49.300;6.846;2022-07-23T20:37:26;27.70;99.90
37108;DHT22;23019;49.300;6.846;2022-07-23T20:39:26;27.70;99.90
37108;DHT22;23019;49.300;6.846;2022-07-23T20:41:27;27.70;99.90
37108;DHT22;23019;49.300;6.846;2022-07-23T20:43:28;27.70;99.90
37108;DHT22;23019;49.300;6.846;2022-07-23T20:45:29;27.70;99.90